Time;durP1;ratioP1;P1;durP2;ratioP2;P2;SDS_P1;SDS_P2;PMS_P1;PMS_P2;Temp;Humidity;BMP_temperature;BMP_pressure;BME280_temperature;BME280_humidity;BME280_pressure;Samples;Min_cycle;Max_cycle;Signal;HPM_P1;HPM_P2
2023/08/25 00:01:18;;;;;;;1.48;1.17;;;24.90;69.50;;;;;;4986548;28;87065;-86
2023/08/25 00:03:44;;;;;;;1.90;1.25;;;24.80;69.30;;;;;;4986128;28;90500;-87
2023/08/25 00:06:10;;;;;;;1.48;1.17;;;24.90;69.20;;;;;;4986753;28;88656;-87
2023/08/25 00:08:36;;;;;;;2.05;1.50;;;24.80;69.90;;;;;;4988009;28;87948;-86
2023/08/25 00:11:02;;;;;;;2.40;1.45;;;24.80;69.20;;;;;;4986723;28;88112;-86
2023/08/25 00:13:27;;;;;;;1.73;1.38;;;24.80;69.00;;;;;;4985082;28;87860;-87
2023/08/25 00:15:53;;;;;;;1.75;1.15;;;24.80;69.00;;;;;;4987569;28;87831;-87
2023/08/25 00:18:18;;;;;;;1.70;1.35;;;24.80;69.10;;;;;;4985599;28;87483;-87
2023/08/25 00:20:44;;;;;;;1.30;1.20;;;24.80;69.20;;;;;;4987764;28;88037;-87
2023/08/25 00:23:10;;;;;;;3.70;1.40;;;24.80;69.00;;;;;;4986623;28;89370;-87
2023/08/25 00:25:36;;;;;;;1.10;1.00;;;24.80;69.00;;;;;;4987405;28;89517;-87
2023/08/25 00:28:01;;;;;;;1.48;1.17;;;24.80;69.00;;;;;;4985016;28;87557;-86
2023/08/25 00:30:27;;;;;;;1.77;1.48;;;24.80;69.00;;;;;;4985943;28;87906;-86
2023/08/25 00:32:53;;;;;;;1.98;1.25;;;24.80;69.00;;;;;;4985620;28;87930;-87
2023/08/25 00:35:18;;;;;;;1.88;1.20;;;24.80;68.80;;;;;;4984608;28;87905;-88
2023/08/25 00:37:44;;;;;;;1.13;1.02;;;24.80;68.70;;;;;;4986731;28;87676;-87
2023/08/25 00:40:10;;;;;;;1.58;1.10;;;24.80;69.00;;;;;;4986568;28;86794;-87
2023/08/25 00:42:36;;;;;;;2.60;1.20;;;24.80;68.90;;;;;;4987207;28;87841;-88
2023/08/25 00:45:02;;;;;;;1.67;1.02;;;24.80;68.80;;;;;;4987039;28;87881;-88
2023/08/25 00:47:28;;;;;;;1.15;1.00;;;24.80;68.80;;;;;;4983193;28;89469;-87
2023/08/25 00:49:55;;;;;;;1.65;1.48;;;24.80;68.90;;;;;;4985954;28;87707;-86
2023/08/25 00:52:22;;;;;;;1.38;1.25;;;24.80;69.00;;;;;;4985280;28;88207;-89
2023/08/25 00:54:54;;;;;;;1.30;1.20;;;24.80;69.10;;;;;;4986542;28;87655;-86
2023/08/25 00:57:20;;;;;;;2.15;1.17;;;24.70;68.90;;;;;;4985597;28;87359;-87
2023/08/25 00:59:46;;;;;;;1.33;1.10;;;24.70;69.00;;;;;;4986361;28;88191;-87
2023/08/25 01:02:12;;;;;;;1.50;1.10;;;24.80;69.00;;;;;;4985905;28;88262;-91
2023/08/25 01:04:38;;;;;;;1.10;0.95;;;24.70;68.90;;;;;;4985749;28;87594;-89
2023/08/25 01:07:04;;;;;;;1.20;1.10;;;24.70;69.10;;;;;;4986494;28;88176;-92
2023/08/25 01:09:31;;;;;;;1.10;1.00;;;24.70;69.10;;;;;;4986315;28;87562;-86
2023/08/25 01:12:00;;;;;;;1.20;1.10;;;24.70;69.10;;;;;;4983379;28;91863;-87
2023/08/25 01:14:44;;;;;;;1.55;1.10;;;24.70;69.20;;;;;;4985604;28;88650;-86
2023/08/25 01:17:13;;;;;;;2.25;1.00;;;24.70;69.20;;;;;;4983087;28;87562;-90
2023/08/25 01:19:58;;;;;;;1.53;1.20;;;24.70;69.20;;;;;;4983616;28;88176;-88
2023/08/25 01:22:47;;;;;;;1.35;1.25;;;24.70;69.00;;;;;;4983804;28;89193;-90
2023/08/25 01:25:33;;;;;;;1.20;1.10;;;24.70;69.00;;;;;;4985799;28;87523;-87
2023/08/25 01:28:01;;;;;;;3.08;1.05;;;24.70;68.90;;;;;;4986145;28;87409;-86
2023/08/25 01:30:30;;;;;;;1.83;1.23;;;24.70;69.00;;;;;;4984534;28;87717;-87
2023/08/25 01:32:57;;;;;;;1.35;1.10;;;24.70;69.00;;;;;;4986821;28;88222;-87
2023/08/25 01:35:46;;;;;;;1.27;1.17;;;24.70;69.00;;;;;;4984969;28;89068;-87
2023/08/25 01:38:24;;;;;;;1.35;1.20;;;24.70;68.90;;;;;;4973902;28;89854;-86
2023/08/25 01:41:04;;;;;;;1.75;0.82;;;24.70;68.90;;;;;;4986176;28;88358;-87
2023/08/25 01:43:34;;;;;;;1.10;1.00;;;24.70;69.00;;;;;;4984488;28;88218;-87
2023/08/25 01:46:00;;;;;;;1.00;1.00;;;24.70;68.90;;;;;;4985166;28;87899;-86
2023/08/25 01:48:30;;;;;;;0.75;0.75;;;24.70;69.10;;;;;;4985144;28;87003;-86
2023/08/25 01:50:56;;;;;;;1.65;1.17;;;24.70;69.00;;;;;;4984823;28;87648;-88
2023/08/25 01:53:22;;;;;;;1.60;1.10;;;24.70;69.10;;;;;;4984656;28;88047;-86
2023/08/25 01:55:48;;;;;;;1.30;1.10;;;24.70;69.10;;;;;;4986657;28;87411;-90
2023/08/25 01:58:14;;;;;;;2.10;1.25;;;24.70;69.20;;;;;;4985359;28;87457;-92
2023/08/25 02:00:40;;;;;;;1.45;1.10;;;24.70;69.00;;;;;;4986769;28;87585;-90
2023/08/25 02:03:05;;;;;;;1.10;1.00;;;24.60;69.20;;;;;;4985317;28;89133;-92
2023/08/25 02:05:31;;;;;;;1.33;1.05;;;24.60;69.10;;;;;;4986061;28;89412;-91
2023/08/25 02:07:57;;;;;;;1.48;1.17;;;24.60;69.20;;;;;;4984836;28;88225;-92
2023/08/25 02:10:23;;;;;;;1.45;1.20;;;24.60;69.10;;;;;;4985958;28;88225;-91
2023/08/25 02:12:48;;;;;;;0.90;0.90;;;24.60;69.10;;;;;;4985927;28;88163;-92
2023/08/25 02:15:14;;;;;;;1.05;0.95;;;24.60;69.10;;;;;;4984789;28;87714;-91
2023/08/25 02:17:40;;;;;;;1.17;1.08;;;24.60;69.20;;;;;;4986315;28;87387;-90
2023/08/25 02:20:07;;;;;;;0.95;0.90;;;24.60;69.20;;;;;;4985879;28;86739;-91
2023/08/25 02:22:33;;;;;;;1.63;1.20;;;24.60;69.10;;;;;;4986026;28;87806;-91
2023/08/25 02:24:59;;;;;;;1.33;0.95;;;24.60;69.20;;;;;;4986135;28;87868;-87
2023/08/25 02:27:25;;;;;;;1.45;1.13;;;24.60;69.20;;;;;;4986905;28;88671;-91
2023/08/25 02:29:52;;;;;;;1.25;0.85;;;24.60;69.20;;;;;;4986583;28;87342;-93
2023/08/25 02:32:18;;;;;;;1.23;1.00;;;24.60;69.20;;;;;;4986036;28;88790;-92
2023/08/25 02:34:43;;;;;;;0.90;0.90;;;24.60;69.20;;;;;;4986104;28;88425;-90
2023/08/25 02:37:09;;;;;;;1.33;1.20;;;24.60;69.30;;;;;;4983991;28;88135;-90
2023/08/25 02:39:35;;;;;;;1.13;1.02;;;24.60;69.30;;;;;;4986166;28;88060;-91
2023/08/25 02:42:01;;;;;;;1.73;1.13;;;24.60;69.30;;;;;;4985670;28;89238;-92
2023/08/25 02:44:26;;;;;;;1.77;1.15;;;24.60;69.20;;;;;;4986807;28;86588;-88
2023/08/25 02:46:52;;;;;;;1.10;1.00;;;24.60;69.30;;;;;;4984578;28;87667;-91
2023/08/25 02:49:18;;;;;;;1.95;1.10;;;24.60;69.20;;;;;;4985139;28;87749;-87
2023/08/25 02:51:43;;;;;;;1.67;1.38;;;24.60;69.90;;;;;;4984234;28;91988;-92
2023/08/25 02:54:09;;;;;;;0.98;0.88;;;24.60;69.20;;;;;;4984088;28;91711;-91
2023/08/25 02:56:34;;;;;;;1.17;1.08;;;24.50;69.20;;;;;;4986120;28;88362;-91
2023/08/25 02:59:00;;;;;;;1.80;1.17;;;24.50;69.20;;;;;;4986017;28;87397;-92
2023/08/25 03:01:26;;;;;;;1.45;1.10;;;24.50;69.20;;;;;;4984683;28;90407;-88
2023/08/25 03:03:51;;;;;;;0.85;0.82;;;24.50;69.20;;;;;;4987538;28;87767;-92
2023/08/25 03:06:17;;;;;;;1.50;1.35;;;24.50;69.10;;;;;;4986042;28;88260;-87
2023/08/25 03:08:45;;;;;;;1.13;1.00;;;24.50;69.20;;;;;;4984801;28;87993;-90
2023/08/25 03:11:10;;;;;;;1.08;0.98;;;24.50;69.30;;;;;;4985381;28;88065;-89
2023/08/25 03:13:36;;;;;;;1.13;0.85;;;24.50;69.10;;;;;;4983735;28;90397;-92
2023/08/25 03:16:02;;;;;;;1.13;1.02;;;24.50;68.90;;;;;;4985857;28;88318;-92
2023/08/25 03:18:28;;;;;;;1.40;1.25;;;24.50;69.00;;;;;;4985397;28;88062;-92
2023/08/25 03:20:53;;;;;;;2.58;1.00;;;24.50;69.10;;;;;;4983013;28;90719;-92
2023/08/25 03:23:19;;;;;;;0.93;0.90;;;24.50;69.30;;;;;;4985092;28;87445;-89
2023/08/25 03:25:45;;;;;;;1.40;1.10;;;24.50;69.20;;;;;;4985983;28;87422;-92
2023/08/25 03:28:11;;;;;;;1.30;1.20;;;24.50;69.30;;;;;;4998760;28;88123;-88
2023/08/25 03:30:37;;;;;;;1.45;1.20;;;24.50;69.10;;;;;;4985490;28;87722;-88
2023/08/25 03:33:05;;;;;;;1.73;0.90;;;24.50;69.00;;;;;;4986166;28;86767;-89
2023/08/25 03:35:35;;;;;;;1.40;1.00;;;24.50;69.10;;;;;;4985390;28;87902;-89
2023/08/25 03:38:01;;;;;;;1.00;0.90;;;24.50;69.10;;;;;;4985453;28;88183;-89
2023/08/25 03:40:26;;;;;;;1.42;1.30;;;24.50;69.10;;;;;;4984193;28;89633;-92
2023/08/25 03:42:52;;;;;;;1.33;1.10;;;24.50;69.20;;;;;;4984114;28;90143;-89
2023/08/25 03:45:18;;;;;;;1.48;1.08;;;24.50;69.20;;;;;;4985413;28;87423;-89
2023/08/25 03:47:43;;;;;;;1.10;1.00;;;24.50;69.20;;;;;;4985100;28;87443;-88
2023/08/25 03:50:10;;;;;;;1.10;1.00;;;24.50;69.20;;;;;;4985730;28;89352;-91
2023/08/25 03:52:36;;;;;;;1.27;1.17;;;24.50;69.00;;;;;;4984723;28;88053;-92
2023/08/25 03:55:02;;;;;;;1.45;1.10;;;24.50;69.20;;;;;;4983660;28;87347;-89
2023/08/25 03:57:28;;;;;;;1.60;1.10;;;24.50;69.20;;;;;;4985092;28;87431;-91
2023/08/25 03:59:54;;;;;;;1.35;1.25;;;24.40;69.20;;;;;;4982085;28;90045;-89
2023/08/25 04:02:19;;;;;;;1.65;1.00;;;24.40;69.00;;;;;;4985524;28;87971;-91
2023/08/25 04:04:45;;;;;;;1.15;1.02;;;24.50;69.00;;;;;;4984449;28;88784;-87
2023/08/25 04:07:12;;;;;;;0.93;0.90;;;24.40;68.90;;;;;;4984477;28;87855;-93
2023/08/25 04:09:38;;;;;;;0.90;0.90;;;24.40;69.00;;;;;;4984335;28;88739;-88
2023/08/25 04:12:04;;;;;;;1.15;1.05;;;24.40;69.10;;;;;;4983531;28;87813;-89
2023/08/25 04:14:30;;;;;;;1.15;0.90;;;24.40;69.00;;;;;;4983618;28;88408;-92
2023/08/25 04:16:56;;;;;;;1.20;1.00;;;24.40;69.20;;;;;;4983828;28;87253;-94
2023/08/25 04:19:21;;;;;;;1.23;0.90;;;24.40;68.90;;;;;;4982971;28;87570;-91
2023/08/25 04:21:48;;;;;;;1.85;1.10;;;24.40;69.10;;;;;;4984370;28;88109;-91
2023/08/25 04:24:15;;;;;;;0.98;0.90;;;24.40;69.20;;;;;;4978188;28;88079;-89
2023/08/25 04:26:42;;;;;;;1.30;1.00;;;24.40;69.10;;;;;;4964688;28;87843;-91
2023/08/25 04:29:09;;;;;;;0.90;0.90;;;24.40;69.00;;;;;;4963770;28;89219;-92
2023/08/25 04:31:38;;;;;;;1.38;1.02;;;24.40;68.80;;;;;;4961152;28;90329;-87
2023/08/25 04:34:05;;;;;;;1.10;1.00;;;24.40;68.90;;;;;;4965165;28;88563;-92
2023/08/25 04:36:36;;;;;;;1.77;1.10;;;24.40;69.00;;;;;;4964674;28;87877;-89
2023/08/25 04:39:02;;;;;;;2.38;0.88;;;24.40;69.00;;;;;;4963256;28;88757;-88
2023/08/25 04:41:28;;;;;;;2.10;1.33;;;24.40;69.20;;;;;;4968073;28;88244;-89
2023/08/25 04:43:53;;;;;;;1.42;1.10;;;24.40;69.10;;;;;;4968091;28;87704;-91
2023/08/25 04:46:19;;;;;;;1.15;1.05;;;24.40;69.00;;;;;;4965033;28;87517;-90
2023/08/25 04:48:46;;;;;;;1.30;1.17;;;24.40;69.00;;;;;;4964580;28;88208;-88
2023/08/25 04:51:12;;;;;;;1.58;1.02;;;24.40;69.10;;;;;;4965863;28;87601;-88
2023/08/25 04:53:38;;;;;;;1.10;0.90;;;24.40;69.00;;;;;;4965643;28;88226;-92
2023/08/25 04:56:04;;;;;;;1.20;1.10;;;24.40;69.00;;;;;;4967571;28;87803;-90
2023/08/25 04:58:30;;;;;;;1.10;1.00;;;24.40;68.90;;;;;;4967078;28;88052;-87
2023/08/25 05:00:55;;;;;;;1.20;1.10;;;24.40;68.90;;;;;;4966154;28;88067;-89
2023/08/25 05:03:21;;;;;;;1.00;0.90;;;24.40;68.90;;;;;;4967425;28;87812;-89
2023/08/25 05:05:47;;;;;;;2.03;1.10;;;24.40;68.90;;;;;;4966968;28;87585;-89
2023/08/25 05:08:12;;;;;;;1.10;1.00;;;24.40;68.80;;;;;;4967363;28;88895;-89
2023/08/25 05:10:38;;;;;;;2.22;1.20;;;24.40;68.80;;;;;;4966668;28;87033;-90
2023/08/25 05:13:04;;;;;;;1.60;1.13;;;24.40;68.60;;;;;;4966346;28;87940;-86
2023/08/25 05:15:29;;;;;;;1.67;1.08;;;24.40;68.70;;;;;;4966338;28;87129;-88
2023/08/25 05:17:55;;;;;;;1.02;0.93;;;24.50;68.70;;;;;;4966327;28;89196;-87
2023/08/25 05:20:21;;;;;;;1.10;1.00;;;24.40;68.80;;;;;;4964979;28;88677;-88
2023/08/25 05:22:48;;;;;;;0.98;0.88;;;24.40;68.90;;;;;;4965152;28;87982;-87
2023/08/25 05:25:14;;;;;;;2.65;1.10;;;24.50;68.60;;;;;;4964829;28;87796;-87
2023/08/25 05:27:40;;;;;;;1.20;1.10;;;24.50;68.70;;;;;;4965447;28;88064;-87
2023/08/25 05:30:06;;;;;;;1.65;1.20;;;24.50;68.40;;;;;;4963126;28;89720;-87
2023/08/25 05:32:32;;;;;;;3.83;1.70;;;24.50;68.00;;;;;;4966222;28;87948;-87
2023/08/25 05:34:57;;;;;;;2.35;1.33;;;24.60;67.30;;;;;;4965001;28;89455;-89
2023/08/25 05:37:23;;;;;;;4.60;1.65;;;24.60;68.00;;;;;;4965053;28;87522;-89
2023/08/25 05:39:49;;;;;;;5.88;2.20;;;24.50;67.40;;;;;;4964673;28;90298;-89
2023/08/25 05:42:15;;;;;;;44.58;8.43;;;24.50;67.50;;;;;;4971062;28;88088;-88
2023/08/25 05:44:41;;;;;;;54.67;11.98;;;24.60;67.60;;;;;;4970158;28;87993;-89
2023/08/25 05:47:06;;;;;;;48.60;10.35;;;24.60;67.30;;;;;;4965474;28;90743;-88
2023/08/25 05:49:32;;;;;;;29.95;8.65;;;24.50;66.90;;;;;;4970480;28;87744;-88
2023/08/25 05:51:58;;;;;;;21.67;5.72;;;24.40;67.10;;;;;;4972439;28;87052;-92
2023/08/25 05:54:24;;;;;;;17.27;4.55;;;24.50;67.70;;;;;;4968366;28;89814;-88
2023/08/25 05:56:49;;;;;;;9.60;4.05;;;24.40;67.80;;;;;;4966516;28;90111;-88
2023/08/25 05:59:15;;;;;;;15.32;4.65;;;24.40;67.80;;;;;;4966081;28;88576;-89
2023/08/25 06:01:41;;;;;;;7.47;3.03;;;24.30;68.00;;;;;;4966925;28;87641;-88
2023/08/25 06:04:07;;;;;;;10.02;3.25;;;24.30;68.40;;;;;;4967864;28;87457;-89
2023/08/25 06:06:33;;;;;;;15.13;4.30;;;24.30;68.60;;;;;;4962358;28;91684;-85
2023/08/25 06:08:59;;;;;;;12.27;2.97;;;24.50;68.50;;;;;;4964558;28;88934;-88
2023/08/25 06:11:24;;;;;;;11.90;4.10;;;24.50;68.60;;;;;;4969443;28;87656;-91
2023/08/25 06:13:53;;;;;;;15.45;3.58;;;24.50;68.90;;;;;;4971984;28;88434;-90
2023/08/25 06:16:19;;;;;;;13.85;4.05;;;24.50;69.20;;;;;;4969062;28;92492;-88
2023/08/25 06:18:44;;;;;;;12.60;4.10;;;24.50;70.40;;;;;;4964586;28;89498;-89
2023/08/25 06:21:10;;;;;;;12.73;4.43;;;24.60;69.80;;;;;;4965790;28;87500;-88
2023/08/25 06:23:36;;;;;;;7.15;3.38;;;24.60;69.40;;;;;;4971425;28;87188;-91
2023/08/25 06:26:01;;;;;;;8.23;3.28;;;24.60;70.00;;;;;;4967085;28;87732;-89
2023/08/25 06:28:27;;;;;;;8.40;3.13;;;24.50;70.40;;;;;;4967393;28;88252;-90
2023/08/25 06:30:53;;;;;;;8.82;3.40;;;24.40;70.70;;;;;;4966744;28;88996;-89
2023/08/25 06:33:18;;;;;;;12.68;3.15;;;24.50;71.00;;;;;;4979043;28;89441;-87
2023/08/25 06:35:44;;;;;;;13.60;4.05;;;24.60;70.90;;;;;;4965295;28;91318;-88
2023/08/25 06:38:10;;;;;;;6.78;2.80;;;24.60;71.20;;;;;;4965675;28;88446;-87
2023/08/25 06:40:36;;;;;;;11.57;3.08;;;24.70;70.80;;;;;;4967234;28;87815;-88
2023/08/25 06:43:02;;;;;;;9.18;3.50;;;24.60;70.20;;;;;;4963784;28;87580;-87
2023/08/25 06:45:29;;;;;;;8.70;3.15;;;24.60;70.50;;;;;;4963982;28;88021;-87
2023/08/25 06:47:55;;;;;;;8.00;3.40;;;24.50;70.70;;;;;;4963662;28;89985;-87
2023/08/25 06:50:25;;;;;;;11.10;3.40;;;24.60;70.70;;;;;;4966545;28;87502;-87
2023/08/25 06:52:51;;;;;;;8.48;3.30;;;24.50;70.40;;;;;;4966395;28;89544;-88
2023/08/25 06:55:18;;;;;;;6.78;2.45;;;24.50;70.30;;;;;;4967037;28;89069;-92
2023/08/25 06:57:45;;;;;;;14.07;3.42;;;24.40;70.00;;;;;;4967069;28;87820;-87
2023/08/25 07:00:12;;;;;;;16.95;4.55;;;24.30;70.20;;;;;;4966050;28;87292;-90
2023/08/25 07:02:40;;;;;;;46.95;11.73;;;24.30;70.10;;;;;;4966027;28;87677;-87
2023/08/25 07:05:06;;;;;;;49.47;12.30;;;24.30;70.20;;;;;;4965703;28;90923;-89
2023/08/25 07:07:33;;;;;;;64.85;15.07;;;24.30;70.40;;;;;;4965360;28;87814;-87
2023/08/25 07:09:59;;;;;;;85.50;19.52;;;24.30;70.30;;;;;;4967961;28;87281;-88
2023/08/25 07:12:24;;;;;;;111.50;22.30;;;24.30;70.40;;;;;;4964965;28;90390;-88
2023/08/25 07:14:52;;;;;;;130.38;27.33;;;24.20;70.50;;;;;;4965899;28;87536;-89
2023/08/25 07:17:18;;;;;;;112.15;25.17;;;24.20;70.20;;;;;;4967464;28;88746;-88
2023/08/25 07:19:43;;;;;;;105.18;19.70;;;24.30;70.20;;;;;;4968029;28;88590;-87
2023/08/25 07:22:09;;;;;;;72.20;16.23;;;24.20;70.00;;;;;;4965126;28;88545;-88
2023/08/25 07:24:34;;;;;;;79.30;17.25;;;24.30;69.80;;;;;;4966112;28;87825;-87
2023/08/25 07:27:00;;;;;;;74.93;16.98;;;24.30;70.60;;;;;;4965310;28;87634;-87
2023/08/25 07:29:26;;;;;;;71.05;16.90;;;24.30;70.00;;;;;;4963318;28;87453;-89
2023/08/25 07:31:52;;;;;;;44.28;10.68;;;24.40;69.90;;;;;;4964988;28;88957;-87
2023/08/25 07:34:18;;;;;;;30.30;7.35;;;24.40;70.30;;;;;;4967615;28;88227;-90
2023/08/25 07:36:44;;;;;;;24.25;7.22;;;24.30;69.40;;;;;;4966990;28;87480;-87
2023/08/25 07:39:10;;;;;;;30.30;7.43;;;24.30;70.00;;;;;;4967558;28;88065;-88
2023/08/25 07:41:36;;;;;;;23.85;5.82;;;24.30;70.30;;;;;;4967881;28;87424;-87
2023/08/25 07:44:02;;;;;;;16.15;4.47;;;24.30;70.10;;;;;;4962906;28;91069;-87
2023/08/25 07:46:29;;;;;;;17.30;4.93;;;24.30;69.90;;;;;;4965342;28;88746;-87
2023/08/25 07:48:54;;;;;;;17.58;4.43;;;24.30;69.90;;;;;;4965374;28;88150;-90
2023/08/25 07:51:20;;;;;;;10.93;3.15;;;24.30;70.10;;;;;;4967901;28;87804;-88
2023/08/25 07:53:46;;;;;;;10.32;3.03;;;24.30;70.10;;;;;;4968193;28;88301;-90
2023/08/25 07:56:12;;;;;;;11.27;2.65;;;24.30;70.40;;;;;;4970376;28;90683;-88
2023/08/25 07:58:38;;;;;;;5.05;1.92;;;24.30;70.20;;;;;;4971667;28;87345;-91
2023/08/25 08:01:04;;;;;;;5.07;1.80;;;24.30;70.30;;;;;;4972234;28;88491;-88
2023/08/25 08:03:31;;;;;;;4.82;1.40;;;24.30;70.10;;;;;;4974003;28;88189;-89
2023/08/25 08:05:56;;;;;;;4.25;1.80;;;24.20;70.00;;;;;;4971452;28;87934;-91
2023/08/25 08:08:22;;;;;;;6.28;1.83;;;24.20;70.40;;;;;;4972439;28;88753;-88
2023/08/25 08:10:48;;;;;;;5.65;1.85;;;24.20;70.30;;;;;;4968243;28;88616;-89
2023/08/25 08:13:13;;;;;;;3.25;1.42;;;24.30;70.40;;;;;;4963367;28;90283;-87
2023/08/25 08:15:39;;;;;;;2.90;1.10;;;24.30;70.00;;;;;;4969673;28;87917;-90
2023/08/25 08:18:04;;;;;;;3.08;1.38;;;24.30;70.10;;;;;;4970528;28;87407;-88
2023/08/25 08:20:33;;;;;;;2.35;1.20;;;24.20;70.90;;;;;;4967334;28;90381;-89
2023/08/25 08:23:00;;;;;;;2.28;1.00;;;24.20;70.60;;;;;;4969762;28;88061;-92
2023/08/25 08:25:25;;;;;;;2.03;1.08;;;24.30;70.30;;;;;;4969323;28;89225;-88
2023/08/25 08:27:51;;;;;;;2.63;1.02;;;24.30;70.60;;;;;;4967540;28;88038;-88
2023/08/25 08:30:19;;;;;;;6.35;1.20;;;24.20;70.50;;;;;;4966316;28;89791;-89
2023/08/25 08:32:46;;;;;;;2.42;0.98;;;24.30;70.80;;;;;;4966175;28;91141;-88
2023/08/25 08:35:12;;;;;;;4.57;1.30;;;24.30;71.00;;;;;;4984105;28;91708;-89
2023/08/25 08:37:39;;;;;;;5.85;1.38;;;24.30;71.10;;;;;;4965117;28;87458;-87
2023/08/25 08:40:06;;;;;;;4.05;1.30;;;24.30;71.30;;;;;;4967004;28;87569;-88
2023/08/25 08:42:40;;;;;;;5.97;1.15;;;24.30;71.10;;;;;;4965654;28;91077;-89
2023/08/25 08:45:10;;;;;;;5.22;1.50;;;24.30;72.00;;;;;;4967420;28;87499;-89
2023/08/25 08:47:37;;;;;;;4.45;1.20;;;24.30;71.00;;;;;;4966172;28;87611;-88
2023/08/25 08:50:04;;;;;;;2.20;1.20;;;24.30;70.40;;;;;;4969470;28;88938;-89
2023/08/25 08:52:31;;;;;;;4.18;1.27;;;24.40;70.60;;;;;;4970356;28;88321;-87
2023/08/25 08:54:58;;;;;;;2.72;0.82;;;24.30;70.60;;;;;;4984717;28;88896;-89
2023/08/25 08:57:25;;;;;;;5.05;1.08;;;24.40;70.70;;;;;;4966579;28;89420;-89
2023/08/25 08:59:52;;;;;;;3.97;0.90;;;24.30;70.60;;;;;;4965718;28;87641;-89
2023/08/25 09:02:20;;;;;;;3.75;1.20;;;24.40;70.90;;;;;;4962876;28;88329;-88
2023/08/25 09:04:49;;;;;;;5.78;1.20;;;24.40;71.80;;;;;;4962476;28;91843;-88
2023/08/25 09:07:17;;;;;;;7.43;1.42;;;24.50;70.80;;;;;;4966175;28;87750;-89
2023/08/25 09:09:45;;;;;;;5.03;1.40;;;24.60;70.70;;;;;;4964198;28;89579;-87
2023/08/25 09:12:13;;;;;;;7.68;1.30;;;24.70;70.30;;;;;;4978275;28;89355;-87
2023/08/25 09:14:38;;;;;;;2.97;1.20;;;24.70;70.70;;;;;;4963614;28;88844;-89
2023/08/25 09:17:06;;;;;;;4.63;1.13;;;24.70;70.60;;;;;;4964840;28;87857;-91
2023/08/25 09:19:33;;;;;;;4.15;1.10;;;24.70;70.70;;;;;;4958398;28;89760;-88
2023/08/25 09:21:59;;;;;;;2.33;0.98;;;24.70;70.30;;;;;;4961746;28;89568;-87
2023/08/25 09:24:25;;;;;;;6.70;1.30;;;24.70;70.40;;;;;;4960284;28;89207;-87
2023/08/25 09:26:51;;;;;;;6.13;1.80;;;24.70;70.50;;;;;;4961247;28;87966;-88
2023/08/25 09:29:17;;;;;;;5.53;1.10;;;24.70;70.20;;;;;;4963274;28;87149;-88
2023/08/25 09:31:44;;;;;;;6.53;1.35;;;24.70;70.70;;;;;;4959989;28;90536;-89
2023/08/25 09:34:13;;;;;;;6.47;1.35;;;24.60;70.80;;;;;;4959765;28;88638;-89
2023/08/25 09:36:55;;;;;;;3.00;1.15;;;24.70;70.90;;;;;;4965692;28;87499;-88
2023/08/25 09:39:22;;;;;;;3.50;1.20;;;24.70;70.60;;;;;;4966931;28;86563;-88
2023/08/25 09:41:48;;;;;;;3.83;0.85;;;24.60;70.80;;;;;;4964422;28;89696;-89
2023/08/25 09:44:15;;;;;;;2.92;1.02;;;24.60;71.10;;;;;;4965824;28;87570;-90
2023/08/25 09:46:42;;;;;;;2.00;1.00;;;24.50;70.90;;;;;;4965906;28;88522;-88
2023/08/25 09:49:10;;;;;;;7.13;1.33;;;24.50;71.10;;;;;;4963245;28;87677;-89
2023/08/25 09:51:44;;;;;;;3.33;1.27;;;24.60;70.90;;;;;;4964266;28;94291;-90
2023/08/25 09:54:12;;;;;;;4.57;1.30;;;24.60;70.80;;;;;;4967669;28;87456;-89
2023/08/25 09:56:38;;;;;;;17.25;1.27;;;24.60;71.10;;;;;;4966886;28;87327;-90
2023/08/25 09:59:05;;;;;;;2.38;0.95;;;24.60;70.90;;;;;;4969894;28;89843;-91
2023/08/25 10:01:35;;;;;;;3.50;1.40;;;24.50;70.70;;;;;;4965782;28;89287;-89
2023/08/25 10:04:03;;;;;;;5.47;1.35;;;24.50;71.00;;;;;;4966323;28;87700;-92
2023/08/25 10:06:34;;;;;;;2.25;1.60;;;24.60;70.90;;;;;;4962793;28;88225;-90
2023/08/25 10:09:01;;;;;;;3.50;1.20;;;24.60;70.70;;;;;;4963271;28;89409;-89
2023/08/25 10:11:29;;;;;;;3.85;1.77;;;24.60;70.60;;;;;;4962256;28;91188;-90
2023/08/25 10:13:56;;;;;;;3.17;1.67;;;24.70;70.40;;;;;;4960182;28;91385;-91
2023/08/25 10:16:25;;;;;;;3.03;1.60;;;24.70;70.60;;;;;;4962386;28;87653;-90
2023/08/25 10:18:58;;;;;;;12.60;1.75;;;24.70;70.50;;;;;;4963468;28;87779;-87
2023/08/25 10:21:25;;;;;;;4.10;1.45;;;24.70;70.50;;;;;;4959660;28;88204;-88
2023/08/25 10:23:56;;;;;;;5.32;1.50;;;24.70;70.50;;;;;;4962882;28;89007;-91
2023/08/25 10:26:23;;;;;;;5.47;1.40;;;24.70;70.60;;;;;;4963776;28;87360;-88
2023/08/25 10:28:49;;;;;;;7.45;1.73;;;24.60;70.90;;;;;;4963221;28;86597;-88
2023/08/25 10:31:15;;;;;;;5.70;1.67;;;24.60;71.00;;;;;;4963404;28;88316;-87
2023/08/25 10:33:52;;;;;;;3.17;1.30;;;24.60;70.70;;;;;;4964605;28;87715;-86
2023/08/25 10:36:20;;;;;;;7.32;1.67;;;24.70;71.10;;;;;;4964990;28;88757;-87
2023/08/25 10:38:52;;;;;;;4.28;1.35;;;24.80;70.90;;;;;;4967392;28;87290;-86
2023/08/25 10:41:19;;;;;;;4.60;1.52;;;24.70;71.10;;;;;;4967264;28;88902;-86
2023/08/25 10:43:49;;;;;;;8.38;1.13;;;24.70;70.90;;;;;;4963449;28;87705;-88
2023/08/25 10:46:21;;;;;;;4.18;1.45;;;24.70;70.90;;;;;;4960270;28;87919;-89
2023/08/25 10:48:51;;;;;;;2.78;1.00;;;24.70;71.10;;;;;;4959805;28;88142;-90
2023/08/25 10:51:18;;;;;;;;;;;24.70;71.50;;;;;;4960385;28;90415;-88
2023/08/25 10:53:54;;;;;;;5.18;1.10;;;24.70;71.70;;;;;;4959410;28;88997;-89
2023/08/25 10:56:22;;;;;;;4.40;1.13;;;24.60;71.80;;;;;;4961117;28;87793;-90
2023/08/25 10:58:56;;;;;;;5.43;1.70;;;24.70;71.80;;;;;;4961996;28;87927;-90
2023/08/25 11:01:38;;;;;;;3.25;1.63;;;24.70;71.80;;;;;;4958388;28;91234;-89
2023/08/25 11:04:10;;;;;;;5.95;1.95;;;24.70;72.00;;;;;;4977832;28;91427;-91
2023/08/25 11:06:43;;;;;;;5.07;1.02;;;24.80;72.30;;;;;;4959886;28;87859;-92
2023/08/25 11:09:30;;;;;;;4.78;1.17;;;24.80;72.10;;;;;;4959094;28;87199;-91
2023/08/25 11:11:58;;;;;;;9.50;1.30;;;24.90;71.80;;;;;;4959998;28;88115;-89
2023/08/25 11:14:30;;;;;;;2.95;1.10;;;24.90;72.40;;;;;;4958811;28;87912;-91
2023/08/25 11:17:01;;;;;;;2.90;1.08;;;25.00;71.40;;;;;;4961315;28;87465;-91
2023/08/25 11:19:29;;;;;;;5.65;1.27;;;25.00;71.80;;;;;;4959162;28;88489;-91
2023/08/25 11:21:59;;;;;;;5.38;1.05;;;25.00;71.60;;;;;;4960719;28;88343;-90
2023/08/25 11:24:25;;;;;;;4.18;1.42;;;25.00;71.40;;;;;;4956248;28;91764;-91
2023/08/25 11:26:51;;;;;;;5.47;1.17;;;25.10;71.90;;;;;;4964031;28;88827;-93
2023/08/25 11:29:17;;;;;;;4.32;1.30;;;25.00;71.70;;;;;;4966120;28;88941;-95
2023/08/25 11:31:46;;;;;;;6.70;1.70;;;25.00;72.20;;;;;;4968571;28;89627;-95
2023/08/25 11:34:11;;;;;;;;;;;24.90;72.70;;;;;;4968243;28;90098;-93
2023/08/25 11:36:37;;;;;;;7.60;1.35;;;24.80;73.00;;;;;;4969029;28;87613;-95
2023/08/25 11:39:03;;;;;;;5.32;1.85;;;24.80;73.20;;;;;;4961390;28;87616;-92
2023/08/25 11:41:29;;;;;;;3.88;1.55;;;25.00;72.90;;;;;;4962934;28;88290;-92
2023/08/25 11:43:57;;;;;;;2.67;1.17;;;25.00;73.30;;;;;;4961660;28;89271;-92
2023/08/25 11:46:23;;;;;;;4.73;1.60;;;24.80;73.80;;;;;;4960486;28;87868;-92
2023/08/25 11:48:50;;;;;;;4.15;1.27;;;24.80;74.20;;;;;;4964146;28;87477;-92
2023/08/25 11:51:17;;;;;;;3.35;1.35;;;24.90;75.00;;;;;;4968688;28;91685;-90
2023/08/25 11:53:44;;;;;;;4.55;1.48;;;24.80;74.00;;;;;;4965338;28;91326;-89
2023/08/25 11:56:15;;;;;;;1.80;1.17;;;24.80;74.20;;;;;;4965264;28;87168;-90
2023/08/25 11:58:41;;;;;;;2.67;1.08;;;24.80;74.50;;;;;;4965440;28;89885;-90
2023/08/25 12:01:09;;;;;;;2.40;1.60;;;24.80;74.50;;;;;;4967888;28;87709;-91
2023/08/25 12:03:35;;;;;;;3.20;1.35;;;24.80;74.40;;;;;;4964793;28;94049;-90
2023/08/25 12:06:06;;;;;;;3.85;1.60;;;25.00;74.20;;;;;;4965280;28;87633;-90
2023/08/25 12:08:33;;;;;;;3.08;1.80;;;24.90;73.90;;;;;;4965761;28;89422;-89
2023/08/25 12:11:00;;;;;;;3.17;1.55;;;24.80;74.50;;;;;;4966195;28;88497;-92
2023/08/25 12:13:35;;;;;;;2.97;1.60;;;24.80;74.50;;;;;;4982767;28;89033;-91
2023/08/25 12:16:04;;;;;;;3.80;1.27;;;24.90;74.90;;;;;;4963500;28;88742;-90
2023/08/25 12:18:42;;;;;;;2.92;1.42;;;24.90;74.80;;;;;;4963977;28;89499;-91
2023/08/25 12:21:08;;;;;;;2.00;1.25;;;24.90;74.40;;;;;;4963623;28;90414;-92
2023/08/25 12:23:39;;;;;;;3.55;1.45;;;24.90;74.50;;;;;;4962005;28;89906;-89
2023/08/25 12:26:08;;;;;;;4.88;1.48;;;24.90;74.50;;;;;;4961347;28;87331;-90
2023/08/25 12:28:34;;;;;;;3.00;1.42;;;24.90;74.50;;;;;;4959854;28;89350;-93
2023/08/25 12:31:01;;;;;;;3.78;1.55;;;25.00;75.00;;;;;;4965924;28;90887;-91
2023/08/25 12:33:28;;;;;;;7.05;1.55;;;25.10;74.50;;;;;;4968445;28;90292;-91
2023/08/25 12:35:54;;;;;;;8.07;1.58;;;25.10;75.10;;;;;;4964924;28;88002;-92
2023/08/25 12:38:20;;;;;;;3.80;1.50;;;25.20;75.10;;;;;;4966027;28;89298;-93
2023/08/25 12:40:46;;;;;;;6.75;1.60;;;25.20;75.40;;;;;;4964910;28;90350;-89
2023/08/25 12:43:12;;;;;;;3.10;1.40;;;25.30;75.10;;;;;;4965544;28;88097;-93
2023/08/25 12:45:41;;;;;;;4.65;1.70;;;25.30;74.30;;;;;;4970393;28;87813;-96